Terminal Aerodrome Forecast
Issued by NWS St Louis, MO

Home | Current Version | Previous Version | Text Only | Print | Product List | Glossary On
Versions: 1 2 3 4 5 6 7 8 9 10 11 12 13 14 15 16 17 18 19 20 21 22 23 24 25 26 27 28
000
FTUS43 KLSX 062217 AAC
TAFSTL
TAF AMD
KSTL 062217Z 0622/0724 18010KT P6SM VCTS SCT030CB BKN250
     FM070000 21010KT P6SM SCT050 BKN120
     FM070800 22008KT 5SM -TSRA BKN040CB
     FM071200 26008KT 5SM -SHRA BR VCTS BKN030CB
     FM071500 32010KT 5SM -RA BR OVC010=

USA.gov is the U.S. government's official web portal to all federal, state and local government web resources and services.